Cape Point, South Africa
Current Conditions -  °F | °C
As of 4:00 AM on Tuesday 21 Oct 2014 (Local Time) from FACT Reporting Station
Clear Clear  
Wind Chill: 61°   Ceiling: Unl
Heat Index: 61°   Visibility: 6mi
Dew Point: 52°   Wind: 6mph
Humidity: 72%   Direction: 190°S
Pressure: 29.94"   Gusts: NA
Location:  34.35°S, 18.5°E
Report Text: FACT 210200Z 19005KT CAVOK 16/11 Q1014 NOSIG
Loading
Personal Weather Stations






























Interactive Weather Map
Tropical Storm Tracking
New forecast layout! Learn more

10-Day Weather Forecast

Advertisements
Track Severe Weather on mobile